createdAt,value
2018-06-11T00:00:39.781Z,21.83
2018-06-11T00:01:39.788Z,21.80
2018-06-11T00:02:39.794Z,21.71
2018-06-11T00:03:39.807Z,21.59
2018-06-11T00:04:39.809Z,21.56
2018-06-11T00:05:39.819Z,21.54
2018-06-11T00:06:39.825Z,21.50
2018-06-11T00:07:39.836Z,21.54
2018-06-11T00:08:39.848Z,21.65
2018-06-11T00:09:39.850Z,21.69
2018-06-11T00:10:39.857Z,21.72
2018-06-11T00:11:39.867Z,21.59
2018-06-11T00:12:39.876Z,21.53
2018-06-11T00:13:39.881Z,21.56
2018-06-11T00:14:39.889Z,21.72
2018-06-11T00:15:39.903Z,21.64
2018-06-11T00:16:39.907Z,21.56
2018-06-11T00:17:39.911Z,21.69
2018-06-11T00:18:39.918Z,21.49
2018-06-11T00:19:39.931Z,21.43
2018-06-11T00:20:39.936Z,21.58
2018-06-11T00:21:39.953Z,21.65
2018-06-11T00:22:39.952Z,21.65
2018-06-11T00:23:39.961Z,21.61
2018-06-11T00:24:39.968Z,21.47
2018-06-11T00:25:39.974Z,21.29
2018-06-11T00:26:39.983Z,21.43
2018-06-11T00:27:39.996Z,21.31
2018-06-11T00:28:39.998Z,21.43
2018-06-11T00:29:40.011Z,21.47
2018-06-11T00:30:40.017Z,21.38
2018-06-11T00:31:40.024Z,21.31
2018-06-11T00:32:40.030Z,21.32
2018-06-11T00:33:40.037Z,21.47
2018-06-11T00:34:40.047Z,21.43
2018-06-11T00:35:40.056Z,21.31
2018-06-11T00:36:40.061Z,21.44
2018-06-11T00:37:40.069Z,21.59
2018-06-11T00:38:40.080Z,21.52
2018-06-11T00:39:40.117Z,21.42
2018-06-11T00:40:40.092Z,21.49
2018-06-11T00:41:40.101Z,21.46
2018-06-11T00:42:40.114Z,21.17
2018-06-11T00:43:40.117Z,21.35
2018-06-11T00:44:40.130Z,21.35
2018-06-11T00:45:40.129Z,21.43
2018-06-11T00:46:40.145Z,21.43
2018-06-11T00:47:40.157Z,21.46
2018-06-11T00:48:40.168Z,21.50
2018-06-11T00:49:40.177Z,21.47
2018-06-11T00:50:40.169Z,21.52
2018-06-11T00:51:40.175Z,21.42
2018-06-11T00:52:40.191Z,21.35
2018-06-11T00:53:40.198Z,21.16
2018-06-11T00:54:40.206Z,21.04
2018-06-11T00:55:40.206Z,21.29
2018-06-11T00:56:40.214Z,21.35
2018-06-11T00:57:40.220Z,21.29
2018-06-11T00:58:40.240Z,21.31
2018-06-11T00:59:40.239Z,21.21
2018-06-11T01:00:40.252Z,21.25
2018-06-11T01:01:40.258Z,21.25
2018-06-11T01:02:40.261Z,21.25
2018-06-11T01:03:40.277Z,21.27
2018-06-11T01:04:40.276Z,21.32
2018-06-11T01:05:40.287Z,21.46
2018-06-11T01:06:40.292Z,21.43
2018-06-11T01:07:40.298Z,21.38
2018-06-11T01:08:40.308Z,21.43
2018-06-11T01:09:40.314Z,21.32
2018-06-11T01:10:40.321Z,21.38
2018-06-11T01:11:40.330Z,21.40
2018-06-11T01:12:40.336Z,21.44
2018-06-11T01:13:40.344Z,21.42
2018-06-11T01:14:40.353Z,21.53
2018-06-11T01:15:40.358Z,21.43
2018-06-11T01:16:40.372Z,21.34
2018-06-11T01:17:40.387Z,21.27
2018-06-11T01:18:54.916Z,21.50
2018-06-11T01:19:40.396Z,21.42
2018-06-11T01:20:40.397Z,21.31
2018-06-11T01:21:40.402Z,21.32
2018-06-11T01:22:40.413Z,21.40
2018-06-11T01:23:40.426Z,21.44
2018-06-11T01:24:40.425Z,21.38
2018-06-11T01:25:40.434Z,21.32
2018-06-11T01:26:40.446Z,21.31
2018-06-11T01:27:40.455Z,21.46
2018-06-11T01:28:40.461Z,21.22
2018-06-11T01:29:40.469Z,21.32
2018-06-11T01:30:40.475Z,21.28
2018-06-11T01:31:40.481Z,21.27
2018-06-11T01:32:40.488Z,21.40
2018-06-11T01:33:40.498Z,21.22
2018-06-11T01:34:40.506Z,21.34
2018-06-11T01:35:40.510Z,21.44
2018-06-11T01:36:40.519Z,21.42
2018-06-11T01:37:40.531Z,21.24
2018-06-11T01:38:40.538Z,21.29
2018-06-11T01:39:40.541Z,21.24
2018-06-11T01:40:40.547Z,21.34
2018-06-11T01:41:40.558Z,21.22
2018-06-11T01:42:40.567Z,21.29
2018-06-11T01:43:40.585Z,21.35
2018-06-11T01:44:40.579Z,21.19
2018-06-11T01:45:40.604Z,21.34
2018-06-11T01:46:40.598Z,21.31
2018-06-11T01:47:40.602Z,21.32
2018-06-11T01:48:40.608Z,21.44
2018-06-11T01:49:40.619Z,21.42
2018-06-11T01:50:40.628Z,21.32
2018-06-11T01:51:40.633Z,21.38
2018-06-11T01:52:40.636Z,21.19
2018-06-11T01:53:40.644Z,21.17
2018-06-11T01:54:40.653Z,21.04
2018-06-11T01:55:40.663Z,21.24
2018-06-11T01:56:40.667Z,21.03
2018-06-11T01:57:40.675Z,21.22
2018-06-11T01:58:40.683Z,21.19
2018-06-11T01:59:40.704Z,21.19
2018-06-11T02:00:40.696Z,21.21
2018-06-11T02:01:40.705Z,21.31
2018-06-11T02:02:40.715Z,21.40
2018-06-11T02:03:40.724Z,21.42
2018-06-11T02:04:40.726Z,21.21
2018-06-11T02:05:40.744Z,21.17
2018-06-11T02:06:40.756Z,21.14
2018-06-11T02:07:40.752Z,21.17
2018-06-11T02:08:40.761Z,21.19
2018-06-11T02:09:40.764Z,21.31
2018-06-11T02:10:40.772Z,21.35
2018-06-11T02:11:40.781Z,21.32
2018-06-11T02:12:40.797Z,20.92
2018-06-11T02:13:40.794Z,20.92
2018-06-11T02:14:40.808Z,20.89
2018-06-11T02:15:40.807Z,20.87
2018-06-11T02:16:40.815Z,20.95
2018-06-11T02:17:40.831Z,20.97
2018-06-11T02:18:40.832Z,20.92
2018-06-11T02:19:40.842Z,20.92
2018-06-11T02:20:40.849Z,21.01
2018-06-11T02:21:40.853Z,21.17
2018-06-11T02:22:40.863Z,20.99
2018-06-11T02:23:40.873Z,20.84
2018-06-11T02:24:40.883Z,20.97
2018-06-11T02:25:40.883Z,21.09
2018-06-11T02:26:40.893Z,21.17
2018-06-11T02:27:40.898Z,21.21
2018-06-11T02:28:40.908Z,21.22
2018-06-11T02:29:40.912Z,21.19
2018-06-11T02:30:40.919Z,20.84
2018-06-11T02:31:40.932Z,20.95
2018-06-11T02:32:40.932Z,20.92
2018-06-11T02:33:40.945Z,20.82
2018-06-11T02:34:40.951Z,20.91
2018-06-11T02:35:40.962Z,20.95
2018-06-11T02:36:40.965Z,20.84
2018-06-11T02:37:40.975Z,20.97
2018-06-11T02:38:40.980Z,21.17
2018-06-11T02:39:40.983Z,20.94
2018-06-11T02:40:40.995Z,21.03
2018-06-11T02:41:40.997Z,20.88
2018-06-11T02:42:41.005Z,20.80
2018-06-11T02:43:41.018Z,20.72
2018-06-11T02:44:41.026Z,20.69
2018-06-11T02:45:41.033Z,20.82
2018-06-11T02:46:41.036Z,20.92
2018-06-11T02:47:41.045Z,20.76
2018-06-11T02:48:41.048Z,20.89
2018-06-11T02:49:41.058Z,20.82
2018-06-11T02:50:41.066Z,21.03
2018-06-11T02:51:41.072Z,21.01
2018-06-11T02:52:41.080Z,20.98
2018-06-11T02:53:41.088Z,20.97
2018-06-11T02:54:41.091Z,20.87
2018-06-11T02:55:41.101Z,20.84
2018-06-11T02:56:41.106Z,20.74
2018-06-11T02:57:41.113Z,20.73
2018-06-11T02:58:41.129Z,20.89
2018-06-11T02:59:41.127Z,20.85
2018-06-11T03:00:41.137Z,20.88
2018-06-11T03:01:41.141Z,20.85
2018-06-11T03:02:41.152Z,20.67
2018-06-11T03:03:41.158Z,20.85
2018-06-11T03:04:41.166Z,20.87
2018-06-11T03:05:41.179Z,20.66
2018-06-11T03:06:41.179Z,20.57
2018-06-11T03:07:41.185Z,20.51
2018-06-11T03:08:41.193Z,20.50
2018-06-11T03:09:41.204Z,20.70
2018-06-11T03:10:41.206Z,20.74
2018-06-11T03:11:41.216Z,20.66
2018-06-11T03:12:41.221Z,20.69
2018-06-11T03:13:41.233Z,20.74
2018-06-11T03:14:41.233Z,20.70
2018-06-11T03:15:41.247Z,20.69
2018-06-11T03:16:41.253Z,20.72
2018-06-11T03:17:41.259Z,20.73
2018-06-11T03:18:41.271Z,20.80
2018-06-11T03:19:41.273Z,20.77
2018-06-11T03:20:41.277Z,20.73
2018-06-11T03:21:41.283Z,20.84
2018-06-11T03:22:41.293Z,20.84
2018-06-11T03:23:41.344Z,20.76
2018-06-11T03:24:41.305Z,20.84
2018-06-11T03:25:41.314Z,20.69
2018-06-11T03:26:41.326Z,20.74
2018-06-11T03:27:41.337Z,20.69
2018-06-11T03:28:41.335Z,20.70
2018-06-11T03:29:41.351Z,20.61
2018-06-11T03:30:41.351Z,20.74
2018-06-11T03:31:41.362Z,20.76
2018-06-11T03:32:41.363Z,20.73
2018-06-11T03:33:41.367Z,20.79
2018-06-11T03:34:41.381Z,20.91
2018-06-11T03:35:41.437Z,20.82
2018-06-11T03:36:41.394Z,20.74
2018-06-11T03:37:41.401Z,20.69
2018-06-11T03:38:41.405Z,20.73
2018-06-11T03:39:41.412Z,20.80
2018-06-11T03:40:41.418Z,20.70
2018-06-11T03:41:41.425Z,20.74
2018-06-11T03:42:41.434Z,20.70
2018-06-11T03:43:41.446Z,20.70
2018-06-11T03:44:41.447Z,20.74
2018-06-11T03:45:41.452Z,20.80
2018-06-11T03:46:41.460Z,20.72
2018-06-11T03:47:41.472Z,20.59
2018-06-11T03:48:41.475Z,20.66
2018-06-11T03:49:41.486Z,20.76
2018-06-11T03:50:41.486Z,20.80
2018-06-11T03:51:41.496Z,20.99
2018-06-11T03:52:41.539Z,20.89
2018-06-11T03:53:41.511Z,20.84
2018-06-11T03:54:41.521Z,20.72
2018-06-11T03:55:41.523Z,20.77
2018-06-11T03:56:41.533Z,20.70
2018-06-11T03:57:41.541Z,20.80
2018-06-11T03:58:41.548Z,20.82
2018-06-11T03:59:41.554Z,20.91
2018-06-11T04:00:41.580Z,20.99
2018-06-11T04:01:41.578Z,20.92
2018-06-11T04:02:41.581Z,20.92
2018-06-11T04:03:41.580Z,20.92
2018-06-11T04:04:41.589Z,20.92
2018-06-11T04:05:41.597Z,20.94
2018-06-11T04:06:41.600Z,20.95
2018-06-11T04:07:41.611Z,20.98
2018-06-11T04:08:41.615Z,21.03
2018-06-11T04:09:41.634Z,21.10
2018-06-11T04:10:41.681Z,21.10
2018-06-11T04:11:41.637Z,21.04
2018-06-11T04:12:41.647Z,21.17
2018-06-11T04:13:41.651Z,21.06
2018-06-11T04:14:41.666Z,21.01
2018-06-11T04:15:41.667Z,20.99
2018-06-11T04:16:41.677Z,21.19
2018-06-11T04:17:41.679Z,21.17
2018-06-11T04:18:41.691Z,21.22
2018-06-11T04:19:41.696Z,21.21
2018-06-11T04:20:41.704Z,21.28
2018-06-11T04:21:41.717Z,21.27
2018-06-11T04:22:41.716Z,21.25
2018-06-11T04:23:41.722Z,21.19
2018-06-11T04:24:41.732Z,21.16
2018-06-11T04:25:41.741Z,21.21
2018-06-11T04:26:41.745Z,21.29
2018-06-11T04:27:41.765Z,21.31
2018-06-11T04:28:41.758Z,21.19
2018-06-11T04:29:41.771Z,21.29
2018-06-11T04:30:41.791Z,21.42
2018-06-11T04:31:41.783Z,21.32
2018-06-11T04:32:41.790Z,21.27
2018-06-11T04:33:41.795Z,21.34
2018-06-11T04:34:41.806Z,21.42
2018-06-11T04:35:41.811Z,21.40
2018-06-11T04:36:41.822Z,21.46
2018-06-11T04:37:41.826Z,21.44
2018-06-11T04:38:41.840Z,21.42
2018-06-11T04:39:41.899Z,21.38
2018-06-11T04:40:41.852Z,21.43
2018-06-11T04:41:41.854Z,21.44
2018-06-11T04:42:41.860Z,21.49
2018-06-11T04:43:41.869Z,21.44
2018-06-11T04:44:41.883Z,21.43
2018-06-11T04:45:41.885Z,21.56
2018-06-11T04:46:41.891Z,21.62
2018-06-11T04:47:41.904Z,21.54
2018-06-11T04:48:41.904Z,21.54
2018-06-11T04:49:41.910Z,21.61
2018-06-11T04:50:41.918Z,21.59
2018-06-11T04:51:41.935Z,21.54
2018-06-11T04:52:41.944Z,21.61
2018-06-11T04:53:41.946Z,21.54
2018-06-11T04:54:41.953Z,21.54
2018-06-11T04:55:41.962Z,21.61
2018-06-11T04:56:41.966Z,21.56
2018-06-11T04:57:41.975Z,21.68
2018-06-11T04:58:41.980Z,21.82
2018-06-11T04:59:41.992Z,21.75
2018-06-11T05:00:41.994Z,21.75
2018-06-11T05:01:42.001Z,21.84
2018-06-11T05:02:42.013Z,21.98
2018-06-11T05:03:42.020Z,21.86
2018-06-11T05:04:42.032Z,21.86
2018-06-11T05:05:42.033Z,21.84
2018-06-11T05:06:42.045Z,21.94
2018-06-11T05:07:42.049Z,21.96
2018-06-11T05:08:42.052Z,21.94
2018-06-11T05:09:42.063Z,22.03
2018-06-11T05:10:42.071Z,22.07
2018-06-11T05:11:42.084Z,21.98
2018-06-11T05:12:42.090Z,22.12
2018-06-11T05:13:42.097Z,22.17
2018-06-11T05:14:42.107Z,22.18
2018-06-11T05:15:42.110Z,22.21
2018-06-11T05:16:42.153Z,22.21
2018-06-11T05:17:42.124Z,22.14
2018-06-11T05:18:42.143Z,22.22
2018-06-11T05:19:42.140Z,22.24
2018-06-11T05:20:42.151Z,22.28
2018-06-11T05:21:42.163Z,22.36
2018-06-11T05:22:42.190Z,22.31
2018-06-11T05:23:42.185Z,22.36
2018-06-11T05:24:42.183Z,22.33
2018-06-11T05:25:42.199Z,22.33
2018-06-11T05:26:42.195Z,22.27
2018-06-11T05:27:42.206Z,22.27
2018-06-11T05:28:42.259Z,22.31
2018-06-11T05:29:42.217Z,22.28
2018-06-11T05:30:42.232Z,22.31
2018-06-11T05:31:42.238Z,22.47
2018-06-11T05:32:42.252Z,22.39
2018-06-11T05:33:42.260Z,22.40
2018-06-11T05:34:42.338Z,22.46
2018-06-11T05:35:42.267Z,22.39
2018-06-11T05:36:42.277Z,22.42
2018-06-11T05:37:42.279Z,22.43
2018-06-11T05:38:42.290Z,22.36
2018-06-11T05:39:42.301Z,22.27
2018-06-11T05:40:42.326Z,22.33
2018-06-11T05:41:42.312Z,22.31
2018-06-11T05:42:42.336Z,22.42
2018-06-11T05:43:42.336Z,22.45
2018-06-11T05:44:42.345Z,22.46
2018-06-11T05:45:42.347Z,22.58
2018-06-11T05:46:42.401Z,22.65
2018-06-11T05:47:42.389Z,22.70
2018-06-11T05:48:42.379Z,22.67
2018-06-11T05:49:42.385Z,22.67
2018-06-11T05:50:42.388Z,22.61
2018-06-11T05:51:42.426Z,22.62
2018-06-11T05:52:42.407Z,22.67
2018-06-11T05:53:42.413Z,22.67
2018-06-11T05:54:42.419Z,22.68
2018-06-11T05:55:42.484Z,22.75
2018-06-11T05:56:42.442Z,22.70
2018-06-11T05:57:42.442Z,22.72
2018-06-11T05:58:42.531Z,22.80
2018-06-11T05:59:42.457Z,22.86
2018-06-11T06:00:42.468Z,22.88
2018-06-11T06:01:42.498Z,22.79
2018-06-11T06:02:42.483Z,22.98
2018-06-11T06:03:42.491Z,22.94
2018-06-11T06:04:42.525Z,23.00
2018-06-11T06:05:42.512Z,23.01
2018-06-11T06:06:42.515Z,23.00
2018-06-11T06:07:42.536Z,23.00
2018-06-11T06:08:42.557Z,23.07
2018-06-11T06:09:42.545Z,23.10
2018-06-11T06:10:42.549Z,23.07
2018-06-11T06:11:42.560Z,23.12
2018-06-11T06:12:42.569Z,23.19
2018-06-11T06:13:42.604Z,23.23
2018-06-11T06:14:42.593Z,23.33
2018-06-11T06:15:42.589Z,23.40
2018-06-11T06:16:42.604Z,23.40
2018-06-11T06:17:42.627Z,23.48
2018-06-11T06:18:42.614Z,23.50
2018-06-11T06:19:42.627Z,23.50
2018-06-11T06:20:42.631Z,23.57
2018-06-11T06:21:42.669Z,23.51
2018-06-11T06:22:42.654Z,23.55
2018-06-11T06:23:42.659Z,23.63
2018-06-11T06:24:42.668Z,23.68
2018-06-11T06:25:42.679Z,23.68
2018-06-11T06:26:42.694Z,23.73
2018-06-11T06:27:42.697Z,23.69
2018-06-11T06:28:42.711Z,23.72
2018-06-11T06:29:42.707Z,23.70
2018-06-11T06:30:42.716Z,23.79
2018-06-11T06:31:42.727Z,23.79
2018-06-11T06:32:42.738Z,23.69
2018-06-11T06:33:42.743Z,23.78
2018-06-11T06:34:42.821Z,23.69
2018-06-11T06:35:42.761Z,23.70
2018-06-11T06:36:42.768Z,23.72
2018-06-11T06:37:42.782Z,23.78
2018-06-11T06:38:42.791Z,23.78
2018-06-11T06:39:42.816Z,23.80
2018-06-11T06:40:42.804Z,23.88
2018-06-11T06:41:42.818Z,23.83
2018-06-11T06:42:42.826Z,23.88
2018-06-11T06:43:42.834Z,23.84
2018-06-11T06:44:42.840Z,23.87
2018-06-11T06:45:42.849Z,23.83
2018-06-11T06:46:42.858Z,23.78
2018-06-11T06:47:42.869Z,23.85
2018-06-11T06:48:42.887Z,23.87
2018-06-11T06:49:42.910Z,23.93
2018-06-11T06:50:42.897Z,23.97
2018-06-11T06:51:42.913Z,23.98
2018-06-11T06:52:42.920Z,24.05
2018-06-11T06:53:42.977Z,24.09
2018-06-11T06:54:42.932Z,24.03
2018-06-11T06:55:42.940Z,24.16
2018-06-11T06:56:42.952Z,24.12
2018-06-11T06:57:42.961Z,24.10
2018-06-11T06:58:42.971Z,24.20
2018-06-11T06:59:43.008Z,24.27
2018-06-11T07:00:42.982Z,24.21
2018-06-11T07:01:42.995Z,24.21
2018-06-11T07:02:43.006Z,24.20
2018-06-11T07:03:43.031Z,24.25
2018-06-11T07:04:43.024Z,24.34
2018-06-11T07:05:43.037Z,24.34
2018-06-11T07:06:43.045Z,24.39
2018-06-11T07:07:43.065Z,24.50
2018-06-11T07:08:43.100Z,24.57
2018-06-11T07:09:43.100Z,24.62
2018-06-11T07:10:43.183Z,24.62
2018-06-11T07:11:43.156Z,24.62
2018-06-11T07:12:43.119Z,24.64
2018-06-11T07:13:43.194Z,24.62
2018-06-11T07:14:43.138Z,24.67
2018-06-11T07:15:43.128Z,24.88
2018-06-11T07:16:43.154Z,24.93
2018-06-11T07:17:43.143Z,24.91
2018-06-11T07:18:43.154Z,24.83
2018-06-11T07:19:43.175Z,24.78
2018-06-11T07:20:43.186Z,24.78
2018-06-11T07:21:43.184Z,24.64
2018-06-11T07:22:43.201Z,24.73
2018-06-11T07:23:43.273Z,24.83
2018-06-11T07:24:43.210Z,24.78
2018-06-11T07:25:43.220Z,24.78
2018-06-11T07:26:43.229Z,24.83
2018-06-11T07:27:43.251Z,24.93
2018-06-11T07:28:43.253Z,24.98
2018-06-11T07:29:43.265Z,24.93
2018-06-11T07:30:43.274Z,25.05
2018-06-11T07:31:43.282Z,25.03
2018-06-11T07:32:43.292Z,25.03
2018-06-11T07:33:43.303Z,24.99
2018-06-11T07:34:43.311Z,25.08
2018-06-11T07:35:43.322Z,25.14
2018-06-11T07:36:43.332Z,25.23
2018-06-11T07:37:43.336Z,25.23
2018-06-11T07:38:43.356Z,25.32
2018-06-11T07:39:43.360Z,25.13
2018-06-11T07:40:43.367Z,25.14
2018-06-11T07:41:43.387Z,25.20
2018-06-11T07:42:43.393Z,25.13
2018-06-11T07:43:43.397Z,25.13
2018-06-11T07:44:43.404Z,25.35
2018-06-11T07:45:43.439Z,25.13
2018-06-11T07:46:43.427Z,25.32
2018-06-11T07:47:43.445Z,25.25
2018-06-11T07:48:43.445Z,25.28
2018-06-11T07:49:43.467Z,25.43
2018-06-11T07:50:43.485Z,25.36
2018-06-11T07:51:43.536Z,25.28
2018-06-11T07:52:43.508Z,25.40
2018-06-11T07:53:43.521Z,25.52
2018-06-11T07:54:43.535Z,25.33
2018-06-11T07:55:43.556Z,25.25
2018-06-11T07:56:43.578Z,25.36
2018-06-11T07:57:43.564Z,25.43
2018-06-11T07:58:43.602Z,25.38
2018-06-11T07:59:43.655Z,25.38
2018-06-11T08:00:43.647Z,25.46
2018-06-11T08:01:43.658Z,25.40
2018-06-11T08:02:43.663Z,25.46
2018-06-11T08:03:43.642Z,25.50
2018-06-11T08:04:44.634Z,25.54
2018-06-11T08:05:43.706Z,25.54
2018-06-11T08:06:43.675Z,25.51
2018-06-11T08:07:43.775Z,25.54
2018-06-11T08:08:44.621Z,25.62
2018-06-11T08:09:43.721Z,25.62
2018-06-11T08:10:43.759Z,25.65
2018-06-11T08:11:43.755Z,25.72
2018-06-11T08:12:43.751Z,25.55
2018-06-11T08:13:43.825Z,25.75
2018-06-11T08:14:43.734Z,25.72
2018-06-11T08:15:43.825Z,25.76
2018-06-11T08:16:43.806Z,25.79
2018-06-11T08:17:44.618Z,25.73
2018-06-11T08:18:43.805Z,25.75
2018-06-11T08:19:43.832Z,25.70
2018-06-11T08:20:43.883Z,25.65
2018-06-11T08:21:43.801Z,25.70
2018-06-11T08:22:43.939Z,25.54
2018-06-11T08:23:43.908Z,25.69
2018-06-11T08:24:43.860Z,25.75
2018-06-11T08:25:44.642Z,25.76
2018-06-11T08:26:43.903Z,25.79
2018-06-11T08:27:43.931Z,25.87
2018-06-11T08:28:43.972Z,25.88
2018-06-11T08:29:43.924Z,25.91
2018-06-11T08:30:43.929Z,26.05
2018-06-11T08:31:43.927Z,26.01
2018-06-11T08:32:43.975Z,25.98
2018-06-11T08:33:43.953Z,25.97
2018-06-11T08:34:43.943Z,25.87
2018-06-11T08:35:43.949Z,25.91
2018-06-11T08:36:44.069Z,26.06
2018-06-11T08:37:44.001Z,26.01
2018-06-11T08:38:44.041Z,26.18
2018-06-11T08:39:44.095Z,26.07
2018-06-11T08:40:44.055Z,26.21
2018-06-11T08:41:44.032Z,26.09
2018-06-11T08:42:44.000Z,26.01
2018-06-11T08:43:44.024Z,26.01
2018-06-11T08:44:44.069Z,25.99
2018-06-11T08:45:44.105Z,26.05
2018-06-11T08:46:44.146Z,25.99
2018-06-11T08:47:44.122Z,26.02
2018-06-11T08:48:44.178Z,25.99
2018-06-11T08:49:44.132Z,26.09
2018-06-11T08:50:44.099Z,26.01
2018-06-11T08:51:44.132Z,26.09
2018-06-11T08:52:44.209Z,26.20
2018-06-11T08:53:44.120Z,26.23
2018-06-11T08:54:44.184Z,26.30
2018-06-11T08:55:44.230Z,26.28
2018-06-11T08:56:44.245Z,26.29
2018-06-11T08:57:44.255Z,26.25
2018-06-11T08:58:44.197Z,26.30
2018-06-11T08:59:44.199Z,26.33
2018-06-11T09:00:44.211Z,26.35
2018-06-11T09:01:44.247Z,26.32
2018-06-11T09:02:44.264Z,26.26
2018-06-11T09:03:44.250Z,26.13
2018-06-11T09:04:44.241Z,26.23
2018-06-11T09:05:44.284Z,26.25
2018-06-11T09:06:44.283Z,26.32
2018-06-11T09:07:44.306Z,26.28
2018-06-11T09:08:44.334Z,26.25
2018-06-11T09:09:44.344Z,26.36
2018-06-11T09:10:44.341Z,26.21
2018-06-11T09:11:44.430Z,26.18
2018-06-11T09:12:44.345Z,26.21
2018-06-11T09:13:44.334Z,26.35
2018-06-11T09:14:44.371Z,26.44
2018-06-11T09:15:44.365Z,26.50
2018-06-11T09:16:44.373Z,26.45
2018-06-11T09:17:44.382Z,26.50
2018-06-11T09:18:44.392Z,26.54
2018-06-11T09:19:44.403Z,26.57
2018-06-11T09:20:44.455Z,26.51
2018-06-11T09:21:44.467Z,26.55
2018-06-11T09:22:44.444Z,26.67
2018-06-11T09:23:44.447Z,26.67
2018-06-11T09:24:44.460Z,26.66
2018-06-11T09:25:44.477Z,26.66
2018-06-11T09:26:44.482Z,26.80
2018-06-11T09:27:44.507Z,26.77
2018-06-11T09:28:44.547Z,26.84
2018-06-11T09:29:44.518Z,26.81
2018-06-11T09:30:44.525Z,26.80
2018-06-11T09:31:44.535Z,26.75
2018-06-11T09:32:44.554Z,26.75
2018-06-11T09:33:44.563Z,26.58
2018-06-11T09:34:44.570Z,26.48
2018-06-11T09:35:44.597Z,26.55
2018-06-11T09:36:44.593Z,26.48
2018-06-11T09:37:44.636Z,26.58
2018-06-11T09:38:44.617Z,26.50
2018-06-11T09:39:44.623Z,26.58
2018-06-11T09:40:44.641Z,26.63
2018-06-11T09:41:44.667Z,26.51
2018-06-11T09:42:44.668Z,26.54
2018-06-11T09:43:44.723Z,26.63
2018-06-11T09:44:44.681Z,26.63
2018-06-11T09:45:44.707Z,26.55
2018-06-11T09:46:44.702Z,26.54
2018-06-11T09:47:44.723Z,26.52
2018-06-11T09:48:44.873Z,26.58
2018-06-11T09:49:44.817Z,26.65
2018-06-11T09:50:44.749Z,26.63
2018-06-11T09:51:44.852Z,26.70
2018-06-11T09:52:44.769Z,26.76
2018-06-11T09:53:44.791Z,26.66
2018-06-11T09:54:44.910Z,26.65
2018-06-11T09:55:44.872Z,26.62
2018-06-11T09:56:44.845Z,26.65
2018-06-11T09:57:44.857Z,26.63
2018-06-11T09:58:44.835Z,26.70
2018-06-11T09:59:44.907Z,26.67
2018-06-11T10:00:44.930Z,26.76
2018-06-11T10:01:44.933Z,26.84
2018-06-11T10:02:44.924Z,26.97
2018-06-11T10:03:44.993Z,26.95
2018-06-11T10:04:44.931Z,27.09
2018-06-11T10:05:44.942Z,27.04
2018-06-11T10:06:44.932Z,27.10
2018-06-11T10:07:44.966Z,27.04
2018-06-11T10:08:44.984Z,27.04
2018-06-11T10:09:44.964Z,27.07
2018-06-11T10:10:44.975Z,27.13
2018-06-11T10:11:44.985Z,27.25
2018-06-11T10:12:45.022Z,27.27
2018-06-11T10:13:45.026Z,27.39
2018-06-11T10:14:45.036Z,27.51
2018-06-11T10:15:45.066Z,27.66
2018-06-11T10:16:45.117Z,27.69
2018-06-11T10:17:45.100Z,27.66
2018-06-11T10:18:45.115Z,27.66
2018-06-11T10:19:45.208Z,27.78
2018-06-11T10:20:45.148Z,27.78
2018-06-11T10:21:45.137Z,27.82
2018-06-11T10:22:45.168Z,27.65
2018-06-11T10:23:45.238Z,27.81
2018-06-11T10:24:45.237Z,27.85
2018-06-11T10:25:45.205Z,27.87
2018-06-11T10:26:45.229Z,27.87
2018-06-11T10:27:45.220Z,27.94
2018-06-11T10:28:45.231Z,28.03
2018-06-11T10:29:45.264Z,28.07
2018-06-11T10:30:45.332Z,28.21
2018-06-11T10:31:45.315Z,28.30
2018-06-11T10:32:45.295Z,28.14
2018-06-11T10:33:45.272Z,28.19
2018-06-11T10:34:45.293Z,28.24
2018-06-11T10:35:45.357Z,28.14
2018-06-11T10:36:45.386Z,28.17
2018-06-11T10:37:45.363Z,28.17
2018-06-11T10:38:45.373Z,28.33
2018-06-11T10:39:45.379Z,28.41
2018-06-11T10:40:45.451Z,28.51
2018-06-11T10:41:45.374Z,28.64
2018-06-11T10:42:45.355Z,28.70
2018-06-11T10:43:45.464Z,28.81
2018-06-11T10:44:45.489Z,28.80
2018-06-11T10:45:45.414Z,28.71
2018-06-11T10:46:45.437Z,28.81
2018-06-11T10:47:45.440Z,28.77
2018-06-11T10:48:45.430Z,28.74
2018-06-11T10:49:45.440Z,28.68
2018-06-11T10:50:45.456Z,28.71
2018-06-11T10:51:45.471Z,28.78
2018-06-11T10:52:45.483Z,28.86
2018-06-11T10:53:45.491Z,28.71
2018-06-11T10:54:45.505Z,28.64
2018-06-11T10:55:45.521Z,28.74
2018-06-11T10:56:45.531Z,28.81
2018-06-11T10:57:45.547Z,28.95
2018-06-11T10:58:45.552Z,28.90
2018-06-11T10:59:45.571Z,28.96
2018-06-11T11:00:45.690Z,28.85
2018-06-11T11:01:45.662Z,28.85
2018-06-11T11:02:45.680Z,28.86
2018-06-11T11:03:45.656Z,28.80
2018-06-11T11:04:45.732Z,28.83
2018-06-11T11:05:45.649Z,28.85
2018-06-11T11:06:45.661Z,28.89
2018-06-11T11:07:45.676Z,28.77
2018-06-11T11:08:45.704Z,28.85
2018-06-11T11:09:45.696Z,28.93
2018-06-11T11:10:45.823Z,28.80
2018-06-11T11:11:45.736Z,28.71
2018-06-11T11:12:45.738Z,28.77
2018-06-11T11:13:45.751Z,28.41
2018-06-11T11:14:45.767Z,28.64
2018-06-11T11:15:45.780Z,28.67
2018-06-11T11:16:45.795Z,28.71
2018-06-11T11:17:45.821Z,28.62
2018-06-11T11:18:45.813Z,28.77
2018-06-11T11:19:45.854Z,28.78
2018-06-11T11:20:45.842Z,28.62
2018-06-11T11:21:45.859Z,28.68
2018-06-11T11:22:45.864Z,28.71
2018-06-11T11:23:45.897Z,28.77
2018-06-11T11:24:45.891Z,28.77
2018-06-11T11:25:45.911Z,28.81
2018-06-11T11:26:45.917Z,28.83
2018-06-11T11:27:45.932Z,28.80
2018-06-11T11:28:45.948Z,28.83
2018-06-11T11:29:45.964Z,28.85
2018-06-11T11:30:45.990Z,28.80
2018-06-11T11:31:46.003Z,28.92
2018-06-11T11:32:46.000Z,28.95
2018-06-11T11:33:46.043Z,29.11
2018-06-11T11:34:46.028Z,28.98
2018-06-11T11:35:46.037Z,28.96
2018-06-11T11:36:46.048Z,29.04
2018-06-11T11:37:46.061Z,29.08
2018-06-11T11:38:46.080Z,28.78
2018-06-11T11:39:46.094Z,29.00
2018-06-11T11:40:46.104Z,29.04
2018-06-11T11:41:46.116Z,29.11
2018-06-11T11:42:46.129Z,29.23
2018-06-11T11:43:46.141Z,29.21
2018-06-11T11:44:46.159Z,29.15
2018-06-11T11:45:46.169Z,29.37
2018-06-11T11:46:46.210Z,29.28
2018-06-11T11:47:46.202Z,29.36
2018-06-11T11:48:46.247Z,29.53
2018-06-11T11:49:46.226Z,29.41
2018-06-11T11:50:46.253Z,29.36
2018-06-11T11:51:46.246Z,29.33
2018-06-11T11:52:46.260Z,29.31
2018-06-11T11:53:46.277Z,29.31
2018-06-11T11:54:46.297Z,29.26
2018-06-11T11:55:46.311Z,29.28
2018-06-11T11:56:46.318Z,29.21
2018-06-11T11:57:46.356Z,28.96
2018-06-11T11:58:46.338Z,29.04
2018-06-11T11:59:46.351Z,28.89
2018-06-11T12:00:46.368Z,28.83
2018-06-11T12:01:46.422Z,28.83
2018-06-11T12:02:46.394Z,28.92
2018-06-11T12:03:46.416Z,29.12
2018-06-11T12:04:46.421Z,29.09
2018-06-11T12:05:46.435Z,29.24
2018-06-11T12:06:46.452Z,29.09
2018-06-11T12:07:46.470Z,29.00
2018-06-11T12:08:46.469Z,28.90
2018-06-11T12:09:46.485Z,28.86
2018-06-11T12:10:46.498Z,28.76
2018-06-11T12:11:46.525Z,28.67
2018-06-11T12:12:46.525Z,28.71
2018-06-11T12:13:46.584Z,28.64
2018-06-11T12:14:46.555Z,28.66
2018-06-11T12:15:46.564Z,28.74
2018-06-11T12:16:46.590Z,28.71
2018-06-11T12:17:46.604Z,28.58
2018-06-11T12:18:46.603Z,28.55
2018-06-11T12:19:47.684Z,28.64
2018-06-11T12:20:46.642Z,28.61
2018-06-11T12:21:46.736Z,28.39
2018-06-11T12:22:46.662Z,28.49
2018-06-11T12:23:46.672Z,28.66
2018-06-11T12:24:46.685Z,28.58
2018-06-11T12:25:46.698Z,28.54
2018-06-11T12:26:46.725Z,28.55
2018-06-11T12:27:46.726Z,28.58
2018-06-11T12:28:46.758Z,28.67
2018-06-11T12:29:46.754Z,28.68
2018-06-11T12:30:46.762Z,28.56
2018-06-11T12:31:46.775Z,28.54
2018-06-11T12:32:46.823Z,28.51
2018-06-11T12:33:46.803Z,28.55
2018-06-11T12:34:46.812Z,28.36
2018-06-11T12:35:46.826Z,28.46
2018-06-11T12:36:46.919Z,28.48
2018-06-11T12:37:46.849Z,28.44
2018-06-11T12:38:46.863Z,28.31
2018-06-11T12:39:46.896Z,28.22
2018-06-11T12:40:46.897Z,28.19
2018-06-11T12:41:46.916Z,28.07
2018-06-11T12:42:46.926Z,28.22
2018-06-11T12:43:46.932Z,28.22
2018-06-11T12:44:46.940Z,28.37
2018-06-11T12:45:46.954Z,28.44
2018-06-11T12:46:47.017Z,28.40
2018-06-11T12:47:47.035Z,28.41
2018-06-11T12:48:46.996Z,28.29
2018-06-11T12:49:47.078Z,28.34
2018-06-11T12:50:47.017Z,28.33
2018-06-11T12:51:47.056Z,28.34
2018-06-11T12:52:47.062Z,28.49